Main page
METAR-TAF:

METAR-TAF

Airports :

Tan Son Nhat International Airport

Ho Chi Minh City, Vietnam

latitude: 10-49N, longitude: 106-40E, elevation: 19 m

Current weather observation

The report was made 35 minutes ago, at 20:00 UTC
Wind 4 kt from the East/Northeast
Temperature 24°C
Humidity 83%
Pressure 1009 hPa
Visibility 10 km or more
Few clouds at a height of 2000 ft

METAR: VVTS 152000Z 06004KT 9999 FEW020 24/21 Q1009 NOSIG

Time: 03:35 (20:35 UTC)

Forecast

The report was made 3 hours and 35 minutes ago, at 17:00 UTC
Forecast valid from 15 at 18 UTC to 16 at 24 UTC
Wind 6 kt from the Northeast
Visibility 10 km or more
Scattered clouds at a height of 1700 ft

TAF: VVTS 151700Z 1518/1624 05006KT 9999 SCT017

Weather observations and forecasts of more than 4000 airports (METAR and TAF reports).

The available stations are represented by yellow and red dots on the map.

Hover mouse over dot to see the name of the station.

Then click to see weather observations and forecasts.

To change the map : click on the green buttons with a black cross to zoom in, on the green button with a dash to zoom out, or on the green arrows for adjacent maps.


METAR-TAF: